Time;durP1;ratioP1;P1;durP2;ratioP2;P2;SDS_P1;SDS_P2;PMS_P1;PMS_P2;Temp;Humidity;BMP_temperature;BMP_pressure;BME280_temperature;BME280_humidity;BME280_pressure;Samples;Min_cycle;Max_cycle;Signal;HPM_P1;HPM_P2
2021/06/09 00:01:52;;;;;;;13.13;9.90;;;23.40;64.50;;;;;;5207999;28;20053;-80
2021/06/09 00:04:25;;;;;;;12.52;10.32;;;23.40;64.40;;;;;;5202191;28;20060;-82
2021/06/09 00:07:01;;;;;;;16.15;10.18;;;23.40;64.40;;;;;;5208398;28;20057;-80
2021/06/09 00:09:34;;;;;;;11.07;8.75;;;23.40;64.40;;;;;;5208549;28;20509;-82
2021/06/09 00:12:08;;;;;;;11.05;9.02;;;23.40;64.50;;;;;;5199779;28;20812;-80
2021/06/09 00:14:47;;;;;;;13.52;9.80;;;23.40;64.50;;;;;;5202760;28;20064;-81
2021/06/09 00:17:20;;;;;;;10.82;9.70;;;23.40;64.40;;;;;;5218525;28;20057;-80
2021/06/09 00:19:55;;;;;;;13.90;9.47;;;23.40;64.40;;;;;;5201364;28;20053;-80
2021/06/09 00:22:29;;;;;;;10.80;9.13;;;23.40;64.40;;;;;;5203151;28;20602;-79
2021/06/09 00:25:13;;;;;;;11.82;9.45;;;23.40;64.30;;;;;;5206732;28;20559;-81
2021/06/09 00:27:49;;;;;;;11.15;9.23;;;23.40;64.20;;;;;;5206653;28;20102;-80
2021/06/09 00:30:28;;;;;;;10.27;9.27;;;23.40;64.20;;;;;;5200721;28;20057;-80
2021/06/09 00:33:02;;;;;;;13.25;10.48;;;23.40;64.20;;;;;;5219337;28;20073;-79
2021/06/09 00:35:34;;;;;;;12.10;9.45;;;23.40;64.10;;;;;;5186735;28;20056;-81
2021/06/09 00:38:07;;;;;;;10.70;9.23;;;23.30;64.70;;;;;;5202084;28;20060;-82
2021/06/09 00:40:40;;;;;;;10.15;9.15;;;23.40;64.10;;;;;;5203926;28;20048;-82
2021/06/09 00:43:14;;;;;;;11.33;9.93;;;23.30;64.00;;;;;;5203364;28;20056;-81
2021/06/09 00:45:55;;;;;;;10.32;9.32;;;23.30;64.00;;;;;;5201696;28;20052;-81
2021/06/09 00:48:30;;;;;;;10.65;9.15;;;23.30;63.90;;;;;;5202466;28;20057;-80
2021/06/09 00:51:09;;;;;;;12.68;9.18;;;23.30;63.90;;;;;;5203767;28;20887;-81
2021/06/09 00:53:48;;;;;;;10.20;8.88;;;23.30;63.90;;;;;;5192496;28;20081;-80
2021/06/09 00:56:23;;;;;;;10.30;9.07;;;23.30;63.80;;;;;;5220803;28;20049;-81
2021/06/09 00:58:56;;;;;;;9.85;8.73;;;23.30;63.90;;;;;;5217660;28;20040;-80
2021/06/09 01:01:29;;;;;;;10.23;9.23;;;23.40;64.00;;;;;;5202477;28;20576;-80
2021/06/09 01:04:04;;;;;;;10.27;9.02;;;23.30;63.90;;;;;;5214869;28;20509;-80
2021/06/09 01:06:37;;;;;;;9.45;8.48;;;23.30;63.90;;;;;;5201966;28;20049;-81
2021/06/09 01:09:09;;;;;;;9.88;8.82;;;23.30;63.90;;;;;;5201604;28;20506;-81
2021/06/09 01:11:45;;;;;;;12.75;8.63;;;23.30;63.70;;;;;;5206681;28;20059;-82
2021/06/09 01:14:18;;;;;;;10.00;8.90;;;23.30;63.70;;;;;;5204993;28;20053;-80
2021/06/09 01:16:51;;;;;;;10.13;9.07;;;23.30;63.70;;;;;;5205133;28;20048;-81
2021/06/09 01:19:24;;;;;;;10.07;8.63;;;23.30;63.70;;;;;;5201371;28;20408;-81
2021/06/09 01:21:57;;;;;;;13.53;9.67;;;23.30;63.70;;;;;;5200695;28;20048;-81
2021/06/09 01:24:30;;;;;;;10.50;9.37;;;23.30;63.70;;;;;;5199633;28;20056;-80
2021/06/09 01:27:03;;;;;;;9.60;8.57;;;23.30;63.70;;;;;;5197649;28;20053;-82
2021/06/09 01:29:36;;;;;;;13.75;9.30;;;23.30;63.70;;;;;;5205243;28;20411;-82
2021/06/09 01:32:09;;;;;;;10.50;8.97;;;23.30;63.70;;;;;;5197431;28;20049;-79
2021/06/09 01:34:42;;;;;;;12.40;9.18;;;23.30;63.80;;;;;;5201824;28;20049;-80
2021/06/09 01:37:15;;;;;;;10.32;8.75;;;23.30;63.70;;;;;;5201039;28;20418;-81
2021/06/09 01:39:48;;;;;;;10.80;9.43;;;23.30;63.70;;;;;;5201662;28;20071;-80
2021/06/09 01:42:25;;;;;;;10.18;9.15;;;23.30;63.60;;;;;;5198422;28;20418;-80
2021/06/09 01:44:58;;;;;;;10.13;9.13;;;23.30;63.70;;;;;;5198990;28;20056;-80
2021/06/09 01:47:30;;;;;;;9.60;8.77;;;23.30;63.70;;;;;;5198795;28;20474;-80
2021/06/09 01:50:05;;;;;;;9.38;8.38;;;23.20;63.60;;;;;;5201604;28;20057;-81
2021/06/09 01:52:38;;;;;;;10.10;8.55;;;23.20;63.50;;;;;;5203849;28;20060;-81
2021/06/09 01:55:13;;;;;;;10.32;8.98;;;23.20;63.60;;;;;;5199835;28;20516;-81
2021/06/09 01:57:46;;;;;;;9.63;8.63;;;23.20;63.50;;;;;;5203101;28;20048;-79
2021/06/09 02:00:24;;;;;;;9.88;8.07;;;23.30;63.60;;;;;;5188726;28;20567;-81
2021/06/09 02:02:59;;;;;;;11.25;9.30;;;23.20;63.40;;;;;;5203819;28;20072;-79
2021/06/09 02:05:35;;;;;;;11.73;8.27;;;23.20;63.50;;;;;;5200581;28;20762;-80
2021/06/09 02:08:11;;;;;;;9.43;8.52;;;23.20;63.30;;;;;;5215707;28;20068;-80
2021/06/09 02:10:44;;;;;;;9.57;8.52;;;23.20;63.40;;;;;;5204347;28;20057;-81
2021/06/09 02:13:18;;;;;;;11.53;7.87;;;23.20;63.30;;;;;;5196072;28;20049;-80
2021/06/09 02:15:56;;;;;;;9.68;8.68;;;23.20;63.40;;;;;;5202836;28;20310;-81
2021/06/09 02:18:29;;;;;;;9.90;8.48;;;23.20;63.40;;;;;;5202168;28;20410;-82
2021/06/09 02:21:03;;;;;;;9.27;8.25;;;23.20;63.40;;;;;;5200227;28;20052;-81
2021/06/09 02:23:36;;;;;;;9.13;8.23;;;23.20;63.40;;;;;;5202677;28;20052;-80
2021/06/09 02:26:09;;;;;;;14.32;7.93;;;23.20;63.30;;;;;;5200879;28;20052;-81
2021/06/09 02:28:42;;;;;;;11.43;8.95;;;23.20;63.40;;;;;;5202073;28;20076;-81
2021/06/09 02:31:18;;;;;;;10.13;8.63;;;23.20;63.40;;;;;;5203491;28;20037;-81
2021/06/09 02:33:51;;;;;;;9.77;8.38;;;23.20;63.40;;;;;;5199076;28;20080;-81
2021/06/09 02:36:25;;;;;;;8.95;8.13;;;23.20;63.40;;;;;;5219436;28;20057;-81
2021/06/09 02:38:58;;;;;;;9.55;8.65;;;23.20;63.30;;;;;;5204361;28;20053;-81
2021/06/09 02:41:31;;;;;;;11.87;8.63;;;23.20;63.40;;;;;;5199576;28;20057;-80
2021/06/09 02:44:04;;;;;;;13.02;9.15;;;23.20;63.40;;;;;;5202673;28;20048;-82
2021/06/09 02:46:44;;;;;;;8.93;8.00;;;23.20;63.40;;;;;;5201906;28;20390;-80
2021/06/09 02:49:21;;;;;;;8.35;7.53;;;23.10;63.30;;;;;;5204423;28;20391;-80
2021/06/09 02:52:03;;;;;;;9.63;8.57;;;23.20;63.30;;;;;;5201225;28;20068;-80
2021/06/09 02:54:48;;;;;;;8.98;8.05;;;23.10;63.20;;;;;;5203792;28;20048;-81
2021/06/09 02:57:25;;;;;;;9.60;8.55;;;23.10;63.20;;;;;;5202138;28;20064;-81
2021/06/09 03:00:01;;;;;;;12.00;9.10;;;23.20;63.40;;;;;;5216412;28;20052;-81
2021/06/09 03:02:39;;;;;;;10.10;8.73;;;23.10;63.20;;;;;;5200890;28;20048;-80
2021/06/09 03:05:27;;;;;;;8.40;7.60;;;23.10;63.30;;;;;;5203923;28;20135;-82
2021/06/09 03:08:15;;;;;;;10.48;8.13;;;23.10;63.30;;;;;;5204749;28;20041;-80
2021/06/09 03:10:59;;;;;;;11.00;8.02;;;23.10;63.20;;;;;;5203686;28;20045;-81
2021/06/09 03:14:00;;;;;;;8.65;7.75;;;23.10;63.10;;;;;;5204631;28;20417;-81
2021/06/09 03:16:53;;;;;;;11.38;8.23;;;23.10;63.10;;;;;;5203453;28;20555;-81
2021/06/09 03:19:56;;;;;;;10.73;7.87;;;23.10;63.10;;;;;;5206285;28;20061;-80
2021/06/09 03:22:47;;;;;;;9.10;8.02;;;23.10;63.20;;;;;;5203545;28;20060;-82
2021/06/09 03:25:23;;;;;;;9.73;8.40;;;23.10;63.10;;;;;;5222070;28;20497;-81
2021/06/09 03:28:14;;;;;;;8.63;7.53;;;23.10;63.20;;;;;;5188015;28;20290;-80
2021/06/09 03:30:55;;;;;;;8.90;8.00;;;23.10;63.20;;;;;;5204262;28;20637;-81
2021/06/09 03:33:34;;;;;;;8.93;8.05;;;23.10;63.20;;;;;;5203486;28;20055;-81
2021/06/09 03:36:21;;;;;;;11.55;7.32;;;23.10;63.20;;;;;;5205559;28;20057;-80
2021/06/09 03:38:58;;;;;;;10.55;8.07;;;23.10;63.20;;;;;;5208431;28;20083;-80
2021/06/09 03:41:42;;;;;;;11.23;8.98;;;23.10;63.20;;;;;;5215722;28;20414;-82
2021/06/09 03:44:22;;;;;;;11.35;9.02;;;23.00;63.10;;;;;;5218256;28;20037;-81
2021/06/09 03:46:57;;;;;;;10.18;8.32;;;23.10;63.20;;;;;;5202002;28;20067;-80
2021/06/09 03:49:31;;;;;;;9.90;8.90;;;23.00;63.10;;;;;;5202192;28;20517;-82
2021/06/09 03:52:04;;;;;;;9.30;8.40;;;23.00;63.00;;;;;;5216683;28;20045;-82
2021/06/09 03:54:41;;;;;;;10.53;9.40;;;23.10;63.10;;;;;;5201338;28;20051;-82
2021/06/09 03:57:15;;;;;;;12.18;9.45;;;23.00;63.10;;;;;;5200407;28;20057;-80
2021/06/09 03:59:49;;;;;;;10.57;9.48;;;23.00;63.10;;;;;;5199000;28;20312;-80
2021/06/09 04:02:24;;;;;;;9.68;8.40;;;23.00;63.10;;;;;;5197017;28;20068;-82
2021/06/09 04:04:58;;;;;;;12.52;8.73;;;23.10;63.20;;;;;;5204607;28;20056;-81
2021/06/09 04:07:32;;;;;;;12.13;8.50;;;23.00;63.20;;;;;;5219145;28;20048;-80
2021/06/09 04:10:06;;;;;;;9.57;8.57;;;23.10;63.20;;;;;;5203243;28;20385;-82
2021/06/09 04:12:40;;;;;;;9.93;8.27;;;23.00;63.10;;;;;;5210600;28;20056;-82
2021/06/09 04:15:12;;;;;;;;;;;23.00;63.20;;;;;;5218579;28;20056;-82
2021/06/09 04:17:48;;;;;;;9.30;8.38;;;23.00;63.20;;;;;;5201967;28;19925;-81
2021/06/09 04:20:30;;;;;;;11.48;8.45;;;23.00;63.30;;;;;;5192093;28;20076;-82
2021/06/09 04:23:04;;;;;;;9.25;8.35;;;23.00;63.40;;;;;;5199370;28;20056;-80
2021/06/09 04:25:37;;;;;;;10.18;8.85;;;23.00;63.50;;;;;;5178567;28;20052;-81
2021/06/09 04:28:11;;;;;;;9.97;7.40;;;23.00;63.50;;;;;;5210970;28;20403;-80
2021/06/09 04:30:44;;;;;;;9.25;8.27;;;23.00;63.60;;;;;;5194862;28;20379;-82
2021/06/09 04:33:17;;;;;;;10.45;9.27;;;23.00;63.60;;;;;;5206527;28;20443;-82
2021/06/09 04:35:50;;;;;;;9.88;8.05;;;23.00;63.80;;;;;;5210611;28;20049;-82
2021/06/09 04:38:22;;;;;;;9.20;8.23;;;23.00;63.80;;;;;;5223739;28;20057;-81
2021/06/09 04:40:55;;;;;;;10.90;8.53;;;23.00;63.80;;;;;;5208249;28;20768;-83
2021/06/09 04:43:28;;;;;;;9.02;8.15;;;23.00;63.80;;;;;;5199928;28;20064;-81
2021/06/09 04:46:01;;;;;;;16.27;8.70;;;23.00;63.80;;;;;;5192716;28;20049;-81
2021/06/09 04:48:34;;;;;;;11.98;8.35;;;23.00;63.90;;;;;;5194750;28;20053;-82
2021/06/09 04:51:07;;;;;;;10.97;8.87;;;23.00;63.90;;;;;;5197584;28;20053;-80
2021/06/09 04:53:40;;;;;;;10.68;8.45;;;23.00;64.00;;;;;;5187531;28;20123;-80
2021/06/09 04:56:13;;;;;;;11.88;8.38;;;23.00;63.90;;;;;;5185577;28;20057;-80
2021/06/09 04:58:46;;;;;;;16.73;8.60;;;23.00;64.20;;;;;;5191676;28;20048;-81
2021/06/09 05:01:18;;;;;;;15.70;8.10;;;23.10;64.50;;;;;;5200064;28;20060;-81
2021/06/09 05:03:51;;;;;;;18.95;10.85;;;23.10;64.30;;;;;;5198298;28;20407;-84
2021/06/09 05:06:25;;;;;;;20.03;11.83;;;23.10;64.00;;;;;;5203337;28;20387;-80
2021/06/09 05:08:58;;;;;;;15.80;10.93;;;23.10;64.10;;;;;;5193628;28;20609;-82
2021/06/09 05:11:41;;;;;;;17.48;11.70;;;23.00;64.20;;;;;;5189295;28;20433;-82
2021/06/09 05:14:17;;;;;;;14.60;11.70;;;22.90;64.50;;;;;;5207280;28;20050;-80
2021/06/09 05:16:52;;;;;;;15.20;12.82;;;22.90;64.80;;;;;;5206592;28;20060;-80
2021/06/09 05:19:28;;;;;;;16.00;12.40;;;22.80;65.10;;;;;;5202145;28;20057;-84
2021/06/09 05:22:11;;;;;;;18.27;11.85;;;22.70;65.40;;;;;;5201088;28;20535;-80
2021/06/09 05:24:46;;;;;;;13.40;11.93;;;22.60;65.70;;;;;;5202070;28;20060;-81
2021/06/09 05:27:21;;;;;;;19.30;12.23;;;22.50;65.80;;;;;;5184620;28;20057;-81
2021/06/09 05:29:55;;;;;;;15.18;11.93;;;22.60;66.10;;;;;;5186527;28;20053;-80
2021/06/09 05:32:29;;;;;;;16.85;12.35;;;22.50;66.20;;;;;;5188922;28;20063;-82
2021/06/09 05:35:02;;;;;;;18.23;11.13;;;22.50;66.40;;;;;;5196984;28;20125;-82
2021/06/09 05:37:36;;;;;;;;;;;22.50;66.50;;;;;;5213328;28;20056;-82
2021/06/09 05:40:10;;;;;;;20.52;11.60;;;22.40;66.50;;;;;;5209717;28;19925;-81
2021/06/09 05:42:44;;;;;;;16.30;11.05;;;22.50;66.40;;;;;;5216972;28;21022;-80
2021/06/09 05:45:30;;;;;;;20.40;10.90;;;22.50;66.50;;;;;;5196740;28;20061;-78
2021/06/09 05:48:05;;;;;;;43.20;12.10;;;22.50;66.60;;;;;;5191550;28;20521;-81
2021/06/09 05:50:38;;;;;;;13.82;10.43;;;22.60;66.50;;;;;;5195450;28;20049;-82
2021/06/09 05:53:10;;;;;;;16.27;10.03;;;22.60;66.30;;;;;;5200935;28;20056;-84
2021/06/09 05:55:47;;;;;;;17.23;10.57;;;22.60;66.10;;;;;;5209602;28;20052;-81
2021/06/09 05:58:22;;;;;;;13.65;10.88;;;22.70;66.10;;;;;;5196148;28;20306;-81
2021/06/09 06:01:09;;;;;;;12.88;10.10;;;22.70;65.90;;;;;;5202905;28;20433;-82
2021/06/09 06:03:44;;;;;;;13.70;10.65;;;22.70;65.90;;;;;;5199019;28;20052;-80
2021/06/09 06:06:18;;;;;;;15.35;10.15;;;22.70;65.80;;;;;;5201742;28;20060;-81
2021/06/09 06:08:51;;;;;;;12.13;10.25;;;22.80;65.80;;;;;;5200963;28;22340;-81
2021/06/09 06:11:24;;;;;;;13.88;9.63;;;22.80;65.70;;;;;;5221525;28;20045;-81
2021/06/09 06:14:02;;;;;;;12.73;9.63;;;22.80;65.60;;;;;;5205349;28;20045;-83
2021/06/09 06:16:37;;;;;;;10.80;9.02;;;22.80;65.50;;;;;;5207742;28;20503;-80
2021/06/09 06:19:09;;;;;;;15.60;9.77;;;22.80;65.40;;;;;;5205788;28;20060;-80
2021/06/09 06:21:42;;;;;;;11.07;9.73;;;22.80;65.40;;;;;;5207065;28;20325;-80
2021/06/09 06:24:17;;;;;;;12.90;9.90;;;22.90;65.50;;;;;;5205086;28;20045;-81
2021/06/09 06:26:50;;;;;;;13.05;9.38;;;22.90;65.40;;;;;;5206815;28;20303;-82
2021/06/09 06:29:23;;;;;;;11.45;9.55;;;22.90;65.40;;;;;;5180794;28;20474;-83
2021/06/09 06:31:58;;;;;;;11.30;10.07;;;22.90;65.40;;;;;;5205020;28;20064;-83
2021/06/09 06:34:32;;;;;;;13.02;10.80;;;22.90;65.40;;;;;;5208138;28;20395;-81
2021/06/09 06:37:06;;;;;;;12.68;10.32;;;22.90;65.40;;;;;;5207675;28;20585;-80
2021/06/09 06:39:41;;;;;;;12.40;9.70;;;22.90;65.40;;;;;;5198610;28;20052;-82
2021/06/09 06:42:15;;;;;;;10.13;9.02;;;23.00;65.40;;;;;;5202376;28;20055;-80
2021/06/09 06:44:48;;;;;;;12.65;10.35;;;22.90;65.30;;;;;;5205400;28;20057;-82
2021/06/09 06:47:25;;;;;;;13.90;9.70;;;22.90;65.20;;;;;;5220008;28;20080;-81
2021/06/09 06:49:59;;;;;;;17.77;9.90;;;22.90;65.20;;;;;;5207196;28;20053;-82
2021/06/09 06:52:32;;;;;;;11.23;10.05;;;23.00;65.20;;;;;;5208549;28;20049;-81
2021/06/09 06:55:06;;;;;;;14.00;9.48;;;23.00;65.10;;;;;;5205795;28;20049;-82
2021/06/09 06:57:39;;;;;;;12.20;9.50;;;23.00;65.10;;;;;;5201895;28;20057;-81
2021/06/09 07:00:19;;;;;;;11.52;9.90;;;23.00;65.10;;;;;;5207433;28;20056;-80
2021/06/09 07:02:57;;;;;;;11.48;9.93;;;23.00;65.10;;;;;;5203751;28;20053;-82
2021/06/09 07:05:55;;;;;;;13.25;9.75;;;23.00;65.10;;;;;;5224388;28;20045;-82
2021/06/09 07:08:29;;;;;;;10.23;9.23;;;23.00;64.90;;;;;;5121279;28;20054;-58
2021/06/09 07:11:02;;;;;;;12.13;9.73;;;23.00;65.00;;;;;;5136956;28;20054;-55
2021/06/09 07:13:34;;;;;;;14.63;9.75;;;23.10;65.10;;;;;;5126852;28;20050;-54
2021/06/09 07:16:10;;;;;;;11.02;9.88;;;23.00;65.00;;;;;;5133311;28;20062;-55
2021/06/09 07:18:47;;;;;;;11.70;9.43;;;23.00;64.90;;;;;;5139741;28;20050;-52
2021/06/09 07:21:23;;;;;;;10.82;9.52;;;23.10;64.90;;;;;;5141787;28;20054;-55
2021/06/09 07:23:55;;;;;;;11.00;9.30;;;23.10;64.80;;;;;;5138994;28;20313;-58
2021/06/09 07:26:29;;;;;;;9.98;8.95;;;23.10;64.80;;;;;;5133976;28;20430;-53
2021/06/09 07:29:02;;;;;;;14.95;10.65;;;23.10;64.80;;;;;;5159065;28;20042;-55
2021/06/09 07:31:39;;;;;;;11.20;9.68;;;23.10;64.70;;;;;;5140001;28;20050;-52
2021/06/09 07:34:12;;;;;;;10.65;9.63;;;23.10;64.70;;;;;;5143263;28;20046;-55
2021/06/09 07:37:01;;;;;;;13.70;10.02;;;23.10;64.70;;;;;;5160249;28;20462;-55
2021/06/09 07:39:46;;;;;;;12.32;9.80;;;23.20;64.70;;;;;;5155479;28;20073;-58
2021/06/09 07:42:20;;;;;;;11.27;10.10;;;23.10;64.60;;;;;;5142879;28;20042;-52
2021/06/09 07:45:04;;;;;;;15.30;10.65;;;23.10;64.60;;;;;;5144832;28;20046;-54
2021/06/09 07:47:41;;;;;;;15.60;10.93;;;23.10;65.00;;;;;;5137317;28;20054;-56
2021/06/09 07:50:25;;;;;;;13.30;10.98;;;23.20;65.80;;;;;;5149785;28;20074;-55
2021/06/09 07:53:05;;;;;;;13.25;10.63;;;23.20;65.10;;;;;;5146837;28;20046;-57
2021/06/09 07:55:45;;;;;;;12.75;10.68;;;23.20;65.00;;;;;;5159205;28;20050;-51
2021/06/09 07:58:22;;;;;;;11.70;10.50;;;23.20;65.00;;;;;;5139095;28;20065;-54
2021/06/09 08:01:02;;;;;;;11.95;10.75;;;23.20;65.00;;;;;;5147759;28;20522;-54
2021/06/09 08:03:36;;;;;;;13.55;10.40;;;23.20;64.90;;;;;;5161674;28;20465;-55
2021/06/09 08:06:09;;;;;;;11.63;10.32;;;23.20;64.80;;;;;;5146730;28;20050;-59
2021/06/09 08:08:45;;;;;;;14.43;11.15;;;23.20;64.70;;;;;;5145266;28;20038;-59
2021/06/09 08:11:18;;;;;;;15.18;10.95;;;23.20;64.70;;;;;;5147601;28;20645;-56
2021/06/09 08:13:52;;;;;;;14.30;10.90;;;23.20;64.70;;;;;;5145730;28;20061;-54
2021/06/09 08:16:25;;;;;;;16.27;10.88;;;23.20;64.70;;;;;;5143790;28;20423;-55
2021/06/09 08:19:03;;;;;;;11.82;10.18;;;23.30;64.80;;;;;;5148917;28;20062;-53
2021/06/09 08:21:36;;;;;;;13.50;11.45;;;23.30;64.80;;;;;;5137145;28;20065;-57
2021/06/09 08:24:09;;;;;;;12.18;10.88;;;23.30;64.80;;;;;;5150267;28;20054;-54
2021/06/09 08:26:42;;;;;;;12.73;11.43;;;23.30;64.80;;;;;;5139393;28;20061;-60
2021/06/09 08:29:16;;;;;;;13.20;11.15;;;23.20;64.80;;;;;;5145433;28;20305;-55
2021/06/09 08:31:48;;;;;;;13.53;11.40;;;23.30;64.80;;;;;;5142447;28;20051;-55
2021/06/09 08:34:21;;;;;;;13.25;11.15;;;23.30;64.90;;;;;;5134940;28;20374;-57
2021/06/09 08:36:55;;;;;;;15.75;11.75;;;23.30;65.00;;;;;;5138441;28;20581;-56
2021/06/09 08:39:28;;;;;;;12.75;11.45;;;23.30;65.10;;;;;;5147423;28;20065;-54
2021/06/09 08:42:03;;;;;;;14.30;12.30;;;23.30;65.20;;;;;;5139076;28;20089;-53
2021/06/09 08:44:40;;;;;;;15.25;12.15;;;23.30;65.30;;;;;;5136269;28;20488;-54
2021/06/09 08:47:14;;;;;;;17.63;11.38;;;23.30;65.50;;;;;;5140818;28;20054;-52
2021/06/09 08:49:46;;;;;;;;;;;23.30;65.60;;;;;;5140831;28;20592;-55
2021/06/09 08:52:20;;;;;;;14.38;11.68;;;23.30;65.60;;;;;;5139584;28;19929;-56
2021/06/09 08:54:53;;;;;;;23.20;11.85;;;23.30;65.60;;;;;;5131090;28;20668;-55
2021/06/09 08:57:27;;;;;;;16.57;12.47;;;23.30;65.70;;;;;;5132748;28;20502;-55
2021/06/09 09:00:00;;;;;;;15.43;11.65;;;23.40;65.80;;;;;;5145426;28;20061;-53
2021/06/09 09:02:32;;;;;;;18.13;11.50;;;23.40;65.70;;;;;;5148151;28;20392;-56
2021/06/09 09:05:07;;;;;;;17.73;12.23;;;23.40;65.60;;;;;;5149180;28;21018;-54
2021/06/09 09:07:40;;;;;;;22.20;11.43;;;23.40;65.80;;;;;;5143033;28;20392;-55
2021/06/09 09:10:15;;;;;;;18.98;11.98;;;23.40;65.70;;;;;;5147524;28;20645;-56
2021/06/09 09:12:48;;;;;;;15.50;11.00;;;23.40;65.70;;;;;;5147277;28;20058;-52
2021/06/09 09:15:21;;;;;;;18.00;12.80;;;23.40;65.80;;;;;;5148846;28;20050;-58
2021/06/09 09:17:56;;;;;;;18.27;12.82;;;23.40;65.70;;;;;;5147699;28;20058;-55
2021/06/09 09:20:42;;;;;;;16.70;12.15;;;23.50;65.80;;;;;;5149421;28;20058;-56
2021/06/09 09:23:26;;;;;;;14.77;12.75;;;23.50;66.30;;;;;;5147401;28;20523;-53
2021/06/09 09:25:59;;;;;;;;;;;23.50;65.90;;;;;;5160543;28;20054;-53
2021/06/09 09:28:33;;;;;;;13.63;11.82;;;23.40;65.90;;;;;;5138869;28;19926;-52
2021/06/09 09:31:13;;;;;;;16.77;12.15;;;23.50;65.90;;;;;;5150487;28;20050;-52
2021/06/09 09:33:46;;;;;;;15.27;12.27;;;23.50;65.80;;;;;;5148977;28;20069;-56
2021/06/09 09:36:30;;;;;;;13.20;11.50;;;23.50;65.80;;;;;;5142209;28;20050;-53
2021/06/09 09:39:21;;;;;;;16.00;12.65;;;23.50;65.70;;;;;;5144612;28;20062;-54
2021/06/09 09:41:54;;;;;;;17.75;12.93;;;23.50;65.70;;;;;;5158816;28;20066;-56
2021/06/09 09:44:26;;;;;;;14.10;12.60;;;23.50;65.80;;;;;;5138714;28;20058;-58
2021/06/09 09:46:59;;;;;;;16.40;13.27;;;23.50;65.80;;;;;;5143789;28;20395;-54
2021/06/09 09:49:38;;;;;;;15.32;12.48;;;23.60;66.00;;;;;;5140452;28;20063;-55
2021/06/09 09:52:11;;;;;;;17.15;13.07;;;23.60;66.00;;;;;;5141461;28;20487;-53
2021/06/09 09:54:45;;;;;;;15.48;12.15;;;23.60;66.10;;;;;;5147596;28;20049;-54
2021/06/09 09:57:17;;;;;;;16.10;12.43;;;23.60;66.10;;;;;;5146028;28;20511;-55
2021/06/09 09:59:54;;;;;;;17.20;12.77;;;23.60;66.10;;;;;;5145561;28;20054;-55
2021/06/09 10:02:27;;;;;;;18.20;12.60;;;23.60;66.10;;;;;;5141399;28;20426;-55
2021/06/09 10:05:12;;;;;;;15.00;12.75;;;23.60;66.00;;;;;;5142272;28;20050;-54
2021/06/09 10:08:06;;;;;;;14.55;11.65;;;23.60;66.00;;;;;;5143480;28;20051;-55
2021/06/09 10:10:39;;;;;;;14.85;12.65;;;23.60;65.80;;;;;;5143012;28;21045;-56
2021/06/09 10:13:16;;;;;;;15.52;12.20;;;23.70;65.90;;;;;;5144914;28;20054;-52
2021/06/09 10:15:49;;;;;;;14.68;12.60;;;23.70;65.90;;;;;;5145343;28;20081;-55
2021/06/09 10:18:27;;;;;;;15.82;12.90;;;23.70;65.90;;;;;;5143362;28;20504;-56
2021/06/09 10:21:11;;;;;;;14.32;11.65;;;23.70;65.90;;;;;;5146165;28;20043;-57
2021/06/09 10:23:44;;;;;;;16.17;12.73;;;23.70;65.90;;;;;;5147518;28;20524;-50
2021/06/09 10:26:18;;;;;;;16.27;12.65;;;23.70;65.90;;;;;;5145034;28;20510;-51
2021/06/09 10:28:59;;;;;;;15.65;13.18;;;23.80;66.00;;;;;;5148792;28;20058;-55
2021/06/09 10:31:35;;;;;;;14.38;12.57;;;23.80;65.80;;;;;;5140278;28;20970;-51
2021/06/09 10:34:08;;;;;;;13.55;12.15;;;23.80;65.80;;;;;;5145456;28;20503;-56
2021/06/09 10:36:49;;;;;;;13.87;11.97;;;23.80;65.80;;;;;;5143504;28;20061;-52
2021/06/09 10:39:27;;;;;;;13.68;12.18;;;23.80;65.70;;;;;;5146518;28;20148;-55
2021/06/09 10:42:05;;;;;;;15.13;12.77;;;23.80;65.70;;;;;;5145497;28;20521;-57
2021/06/09 10:44:41;;;;;;;15.05;13.07;;;23.80;65.70;;;;;;5157879;28;20423;-52
2021/06/09 10:47:30;;;;;;;14.63;13.02;;;23.80;65.60;;;;;;5143411;28;20053;-57
2021/06/09 10:50:07;;;;;;;13.65;11.52;;;23.80;65.60;;;;;;5142436;28;20062;-51
2021/06/09 10:52:41;;;;;;;13.38;11.95;;;23.80;65.50;;;;;;5144638;28;20047;-51
2021/06/09 10:55:14;;;;;;;14.07;12.55;;;23.90;65.50;;;;;;5156864;28;20046;-57
2021/06/09 10:57:49;;;;;;;13.93;12.30;;;23.90;65.50;;;;;;5141931;28;20050;-54
2021/06/09 11:00:22;;;;;;;14.20;11.95;;;23.90;65.40;;;;;;5142925;28;20062;-56
2021/06/09 11:02:55;;;;;;;13.07;11.75;;;23.90;65.30;;;;;;5145838;28;20070;-49
2021/06/09 11:05:28;;;;;;;13.68;11.80;;;23.90;65.30;;;;;;5142068;28;20064;-54
2021/06/09 11:08:06;;;;;;;13.60;12.25;;;23.90;65.20;;;;;;5145079;28;20149;-59
2021/06/09 11:10:40;;;;;;;15.13;12.07;;;23.90;65.00;;;;;;5141691;28;20061;-60
2021/06/09 11:13:32;;;;;;;13.50;11.32;;;23.90;64.50;;;;;;5142435;28;20058;-56
2021/06/09 11:16:24;;;;;;;12.90;11.50;;;23.90;64.10;;;;;;5147390;28;20057;-53
2021/06/09 11:18:57;;;;;;;13.57;11.95;;;23.90;64.20;;;;;;5142606;28;20078;-53
2021/06/09 11:21:40;;;;;;;13.38;11.98;;;23.90;64.20;;;;;;5139655;28;20057;-54
2021/06/09 11:24:12;;;;;;;29.15;12.73;;;23.90;64.00;;;;;;5141678;28;20053;-58
2021/06/09 11:26:45;;;;;;;30.70;13.33;;;24.00;64.30;;;;;;5154113;28;20054;-58
2021/06/09 11:29:28;;;;;;;25.23;12.40;;;24.00;65.10;;;;;;5143123;28;20304;-53
2021/06/09 11:32:21;;;;;;;27.38;12.48;;;24.00;64.90;;;;;;5141386;28;20061;-54
2021/06/09 11:34:58;;;;;;;17.38;11.95;;;24.00;64.70;;;;;;5139247;28;20061;-57
2021/06/09 11:37:31;;;;;;;19.20;12.23;;;24.00;64.70;;;;;;5143293;28;20065;-54
2021/06/09 11:40:06;;;;;;;18.70;14.00;;;24.00;64.70;;;;;;5142337;28;20061;-51
2021/06/09 11:43:14;;;;;;;21.33;12.50;;;24.00;64.70;;;;;;5143251;28;20503;-58
2021/06/09 11:45:57;;;;;;;18.35;11.52;;;24.00;64.70;;;;;;5142395;28;20565;-53
2021/06/09 11:48:31;;;;;;;13.55;10.82;;;24.00;64.70;;;;;;5139484;28;20105;-54
2021/06/09 11:51:25;;;;;;;19.25;11.98;;;24.00;64.50;;;;;;5135297;28;20814;-54
2021/06/09 11:54:01;;;;;;;19.00;11.80;;;24.00;64.20;;;;;;5138919;28;20050;-57
2021/06/09 11:56:43;;;;;;;15.63;11.00;;;24.00;64.30;;;;;;5142907;28;20058;-52
2021/06/09 11:59:32;;;;;;;15.75;11.77;;;24.00;64.30;;;;;;5144268;28;20054;-53
2021/06/09 12:02:16;;;;;;;17.95;11.98;;;24.00;64.30;;;;;;5144763;28;20062;-55
2021/06/09 12:04:50;;;;;;;16.42;11.68;;;24.10;64.30;;;;;;5140242;28;20058;-59
2021/06/09 12:07:26;;;;;;;15.95;11.73;;;24.10;64.30;;;;;;5145534;28;20046;-51
2021/06/09 12:10:02;;;;;;;16.67;12.25;;;24.10;64.20;;;;;;5144364;28;20050;-55
2021/06/09 12:12:36;;;;;;;18.65;12.02;;;24.10;64.10;;;;;;5147835;28;20061;-53
2021/06/09 12:15:11;;;;;;;21.90;12.55;;;24.10;64.30;;;;;;5141779;28;20050;-55
2021/06/09 12:17:45;;;;;;;17.05;11.52;;;24.10;64.30;;;;;;5139259;28;20073;-54
2021/06/09 12:20:21;;;;;;;15.90;11.32;;;24.10;64.30;;;;;;5141387;28;20054;-56
2021/06/09 12:22:56;;;;;;;15.38;10.93;;;24.10;64.10;;;;;;5139268;28;20069;-56
2021/06/09 12:25:31;;;;;;;17.48;11.48;;;24.10;63.90;;;;;;5138457;28;20050;-55
2021/06/09 12:28:10;;;;;;;20.35;12.15;;;24.20;62.40;;;;;;5140825;28;20515;-56
2021/06/09 12:30:51;;;;;;;15.23;11.73;;;24.20;62.00;;;;;;5144330;28;20049;-58
2021/06/09 12:33:38;;;;;;;17.20;10.63;;;24.20;61.30;;;;;;5138657;28;20047;-53
2021/06/09 12:36:14;;;;;;;14.20;11.52;;;24.20;60.90;;;;;;5136745;28;20420;-48
2021/06/09 12:38:46;;;;;;;12.10;10.32;;;24.20;61.20;;;;;;5136341;28;20053;-59
2021/06/09 12:41:28;;;;;;;15.60;11.20;;;24.20;61.10;;;;;;5137102;28;20070;-51
2021/06/09 12:44:12;;;;;;;12.90;10.63;;;24.20;61.10;;;;;;5139035;28;20050;-53
2021/06/09 12:46:54;;;;;;;11.90;10.35;;;24.20;60.40;;;;;;5133998;28;20054;-59
2021/06/09 12:49:32;;;;;;;11.57;10.00;;;24.20;59.90;;;;;;5136322;28;20462;-58
2021/06/09 12:52:12;;;;;;;13.50;10.63;;;24.30;59.80;;;;;;5124491;28;20407;-50
2021/06/09 12:54:55;;;;;;;12.57;11.27;;;24.30;59.50;;;;;;5128842;28;20057;-51
2021/06/09 12:57:33;;;;;;;12.63;10.82;;;24.30;59.20;;;;;;5137279;28;20050;-53
2021/06/09 13:00:22;;;;;;;14.07;10.32;;;24.30;59.00;;;;;;5136039;28;22241;-55
2021/06/09 13:03:21;;;;;;;11.80;9.95;;;24.30;59.30;;;;;;5140407;28;20065;-52
2021/06/09 13:06:19;;;;;;;14.65;10.32;;;24.30;59.30;;;;;;5119035;28;20062;-53
2021/06/09 13:09:00;;;;;;;13.23;10.63;;;24.30;59.00;;;;;;5136857;28;20081;-54
2021/06/09 13:11:34;;;;;;;14.20;11.15;;;24.30;59.10;;;;;;5137146;28;20065;-50
2021/06/09 13:14:07;;;;;;;;;;;24.30;59.20;;;;;;5134685;28;20058;-56
2021/06/09 13:16:42;;;;;;;15.30;10.77;;;24.20;59.50;;;;;;5138152;28;24623;-56
2021/06/09 13:19:18;;;;;;;13.60;10.25;;;24.20;59.60;;;;;;5134508;28;20395;-55
2021/06/09 13:21:51;;;;;;;11.48;10.15;;;24.20;59.40;;;;;;5135000;28;20338;-52